Time;durP1;ratioP1;P1;durP2;ratioP2;P2;SDS_P1;SDS_P2;PMS_P1;PMS_P2;Temp;Humidity;BMP_temperature;BMP_pressure;BME280_temperature;BME280_humidity;BME280_pressure;Samples;Min_cycle;Max_cycle;Signal;HPM_P1;HPM_P2
2022/10/27 00:01:58;;;;;;;81.10;49.97;;;;;;;;;;6624405;28;20643;-83
2022/10/27 00:05:08;;;;;;;80.93;49.13;;;;;;;;;;6624362;28;20172;-82
2022/10/27 00:08:20;;;;;;;80.37;48.20;;;;;;;;;;6623961;28;20203;-82
2022/10/27 00:11:30;;;;;;;71.67;45.30;;;;;;;;;;6623485;28;20217;-82
2022/10/27 00:14:40;;;;;;;69.43;44.13;;;;;;;;;;6624518;28;20168;-82
2022/10/27 00:17:51;;;;;;;69.63;44.13;;;;;;;;;;6624095;28;20202;-82
2022/10/27 00:21:03;;;;;;;66.73;44.03;;;;;;;;;;6623610;28;20175;-82
2022/10/27 00:24:13;;;;;;;61.50;39.77;;;;;;;;;;6623210;28;20511;-82
2022/10/27 00:27:23;;;;;;;63.43;42.13;;;;;;;;;;6623392;28;20200;-82
2022/10/27 00:30:34;;;;;;;57.03;39.80;;;;;;;;;;6605511;28;20194;-82
2022/10/27 00:33:45;;;;;;;55.70;38.93;;;;;;;;;;6622339;28;20164;-82
2022/10/27 00:36:55;;;;;;;56.20;38.80;;;;;;;;;;6623172;28;20207;-82
2022/10/27 00:40:06;;;;;;;61.43;39.93;;;;;;;;;;6623510;28;20198;-82
2022/10/27 00:43:25;;;;;;;57.07;37.83;;;;;;;;;;6622699;28;20506;-82
2022/10/27 00:46:38;;;;;;;54.20;36.97;;;;;;;;;;6622996;28;20200;-83
2022/10/27 00:50:07;;;;;;;53.63;35.97;;;;;;;;;;6622540;28;20206;-83
2022/10/27 00:53:18;;;;;;;54.63;35.37;;;;;;;;;;6622418;28;20175;-83
2022/10/27 00:56:28;;;;;;;54.07;36.10;;;;;;;;;;6622774;28;20654;-83
2022/10/27 00:59:39;;;;;;;52.20;34.70;;;;;;;;;;6623558;28;20179;-83
2022/10/27 01:02:49;;;;;;;54.77;36.97;;;;;;;;;;6622537;28;20249;-83
2022/10/27 01:06:00;;;;;;;54.43;35.90;;;;;;;;;;6622585;28;20237;-83
2022/10/27 01:09:11;;;;;;;48.60;33.10;;;;;;;;;;6622221;28;20182;-83
2022/10/27 01:12:21;;;;;;;48.30;33.50;;;;;;;;;;6605042;28;20244;-83
2022/10/27 01:15:37;;;;;;;50.07;34.03;;;;;;;;;;6622478;28;20523;-83
2022/10/27 01:19:10;;;;;;;56.13;36.63;;;;;;;;;;6622758;28;20252;-83
2022/10/27 01:22:20;;;;;;;49.90;34.47;;;;;;;;;;6622685;28;20156;-83
2022/10/27 01:25:34;;;;;;;50.20;33.65;;;;;;;;;;6622644;28;20168;-83
2022/10/27 01:29:10;;;;;;;50.70;34.50;;;;;;;;;;6621938;28;20262;-83
2022/10/27 01:32:32;;;;;;;49.47;34.47;;;;;;;;;;6622645;28;20164;-83
2022/10/27 01:36:00;;;;;;;44.13;31.40;;;;;;;;;;6622177;28;20164;-83
2022/10/27 01:39:10;;;;;;;52.53;34.60;;;;;;;;;;6622196;28;20175;-83
2022/10/27 01:42:38;;;;;;;47.37;34.37;;;;;;;;;;6621761;28;20175;-83
2022/10/27 01:45:50;;;;;;;51.93;36.30;;;;;;;;;;6606047;28;20671;-83
2022/10/27 01:49:03;;;;;;;48.47;35.17;;;;;;;;;;6627457;28;20247;-83
2022/10/27 01:52:32;;;;;;;49.93;34.97;;;;;;;;;;6628483;28;20167;-83
2022/10/27 01:55:42;;;;;;;47.80;32.00;;;;;;;;;;6627363;28;20172;-83
2022/10/27 01:59:17;;;;;;;51.70;35.27;;;;;;;;;;6626699;28;20223;-84
2022/10/27 02:02:34;;;;;;;46.93;33.07;;;;;;;;;;6627430;28;20191;-83
2022/10/27 02:06:19;;;;;;;48.53;33.03;;;;;;;;;;6627021;28;20206;-83
2022/10/27 02:09:30;;;;;;;49.50;33.97;;;;;;;;;;6528368;28;20559;-83
2022/10/27 02:12:41;;;;;;;47.77;32.93;;;;;;;;;;6626906;28;20156;-83
2022/10/27 02:15:54;;;;;;;48.47;32.87;;;;;;;;;;6627880;28;20218;-83
2022/10/27 02:19:07;;;;;;;48.60;32.80;;;;;;;;;;6626660;28;20168;-83
2022/10/27 02:22:18;;;;;;;50.20;33.23;;;;;;;;;;6626233;28;20575;-83
2022/10/27 02:25:31;;;;;;;51.20;34.60;;;;;;;;;;6626489;28;20168;-82
2022/10/27 02:28:59;;;;;;;45.20;32.13;;;;;;;;;;6626468;28;20167;-82
2022/10/27 02:32:11;;;;;;;44.30;30.40;;;;;;;;;;6626362;28;20164;-82
2022/10/27 02:35:22;;;;;;;44.43;32.40;;;;;;;;;;6626656;28;20631;-82
2022/10/27 02:38:32;;;;;;;51.83;34.40;;;;;;;;;;6626181;28;20168;-82
2022/10/27 02:41:42;;;;;;;44.93;31.77;;;;;;;;;;6626155;28;20164;-82
2022/10/27 02:44:53;;;;;;;41.73;30.23;;;;;;;;;;6626039;28;20621;-82
2022/10/27 02:48:03;;;;;;;48.77;33.60;;;;;;;;;;6625647;28;20195;-82
2022/10/27 02:51:13;;;;;;;44.80;31.43;;;;;;;;;;6626344;28;20226;-82
2022/10/27 02:54:24;;;;;;;44.93;30.77;;;;;;;;;;6626242;28;20282;-82
2022/10/27 02:57:34;;;;;;;45.83;31.03;;;;;;;;;;6625568;28;20615;-82
2022/10/27 03:00:44;;;;;;;43.17;30.00;;;;;;;;;;6626406;28;20170;-82
2022/10/27 03:03:54;;;;;;;47.47;30.43;;;;;;;;;;6625558;28;20215;-82
2022/10/27 03:07:05;;;;;;;41.60;29.70;;;;;;;;;;6625796;28;20198;-82
2022/10/27 03:10:15;;;;;;;43.63;30.20;;;;;;;;;;6608354;28;20678;-83
2022/10/27 03:13:25;;;;;;;45.70;29.90;;;;;;;;;;6626111;28;20198;-83
2022/10/27 03:16:36;;;;;;;42.80;29.17;;;;;;;;;;6625606;28;20724;-83
2022/10/27 03:19:46;;;;;;;41.17;28.23;;;;;;;;;;6626183;28;20168;-82
2022/10/27 03:22:56;;;;;;;41.43;28.77;;;;;;;;;;6625663;28;20222;-82
2022/10/27 03:26:07;;;;;;;35.77;26.57;;;;;;;;;;6625332;28;20207;-82
2022/10/27 03:29:17;;;;;;;36.90;27.37;;;;;;;;;;6624637;28;20267;-82
2022/10/27 03:32:27;;;;;;;40.20;28.87;;;;;;;;;;6625682;28;20168;-82
2022/10/27 03:35:38;;;;;;;41.53;28.37;;;;;;;;;;6625888;28;20172;-82
2022/10/27 03:38:48;;;;;;;39.77;27.90;;;;;;;;;;6625155;28;20167;-82
2022/10/27 03:41:58;;;;;;;39.23;27.17;;;;;;;;;;6624331;28;20168;-82
2022/10/27 03:45:10;;;;;;;47.57;32.47;;;;;;;;;;6624541;28;20179;-82
2022/10/27 03:48:20;;;;;;;54.33;34.13;;;;;;;;;;6624451;28;20199;-82
2022/10/27 03:51:30;;;;;;;53.63;37.23;;;;;;;;;;6624256;28;20594;-82
2022/10/27 03:54:41;;;;;;;53.87;34.60;;;;;;;;;;6624334;28;20178;-82
2022/10/27 03:57:51;;;;;;;53.50;35.13;;;;;;;;;;6623775;28;20227;-82
2022/10/27 04:01:03;;;;;;;51.73;33.53;;;;;;;;;;6623956;28;20172;-82
2022/10/27 04:04:13;;;;;;;45.37;31.00;;;;;;;;;;6623916;28;20230;-82
2022/10/27 04:07:23;;;;;;;50.03;32.27;;;;;;;;;;6623578;28;20199;-82
2022/10/27 04:10:34;;;;;;;45.83;31.17;;;;;;;;;;6623407;28;20202;-82
2022/10/27 04:13:45;;;;;;;47.30;31.20;;;;;;;;;;6623875;28;20168;-82
2022/10/27 04:16:55;;;;;;;51.10;35.43;;;;;;;;;;6623732;28;20200;-82
2022/10/27 04:20:06;;;;;;;51.80;37.07;;;;;;;;;;6623654;28;20178;-82
2022/10/27 04:23:16;;;;;;;54.40;36.57;;;;;;;;;;6623887;28;20525;-82
2022/10/27 04:26:26;;;;;;;58.97;38.13;;;;;;;;;;6623076;28;20203;-82
2022/10/27 04:29:37;;;;;;;53.27;37.23;;;;;;;;;;6623993;28;20210;-82
2022/10/27 04:32:50;;;;;;;60.33;37.13;;;;;;;;;;6624320;28;20532;-82
2022/10/27 04:36:00;;;;;;;57.67;37.73;;;;;;;;;;6622888;28;20207;-82
2022/10/27 04:39:13;;;;;;;53.93;35.80;;;;;;;;;;6622880;28;20172;-81
2022/10/27 04:42:23;;;;;;;61.27;37.27;;;;;;;;;;6623538;28;20175;-82
2022/10/27 04:45:33;;;;;;;46.40;32.00;;;;;;;;;;6622930;28;20521;-82
2022/10/27 04:48:44;;;;;;;50.73;32.17;;;;;;;;;;6622619;28;20206;-82
2022/10/27 04:51:54;;;;;;;47.57;31.30;;;;;;;;;;6623570;28;20172;-82
2022/10/27 04:55:05;;;;;;;49.47;33.03;;;;;;;;;;6622875;28;20528;-81
2022/10/27 04:58:15;;;;;;;50.50;31.83;;;;;;;;;;6604808;28;20235;-82
2022/10/27 05:01:25;;;;;;;49.80;32.07;;;;;;;;;;6622983;28;20229;-82
2022/10/27 05:04:36;;;;;;;49.67;32.20;;;;;;;;;;6622253;28;20243;-82
2022/10/27 05:07:56;;;;;;;43.67;27.73;;;;;;;;;;6622872;28;20195;-82
2022/10/27 05:11:07;;;;;;;45.57;29.77;;;;;;;;;;6622517;28;20160;-82
2022/10/27 05:14:17;;;;;;;43.30;28.80;;;;;;;;;;6621898;28;20620;-82
2022/10/27 05:17:27;;;;;;;46.53;28.63;;;;;;;;;;6621833;28;20171;-82
2022/10/27 05:20:38;;;;;;;50.13;31.83;;;;;;;;;;6621696;28;20203;-82
2022/10/27 05:23:48;;;;;;;57.90;36.03;;;;;;;;;;6622309;28;20547;-82
2022/10/27 05:26:58;;;;;;;66.80;41.70;;;;;;;;;;6621713;28;20321;-82
2022/10/27 05:30:10;;;;;;;69.23;43.27;;;;;;;;;;6622553;28;20631;-82
2022/10/27 05:33:20;;;;;;;64.57;38.57;;;;;;;;;;6622260;28;20163;-82
2022/10/27 05:36:31;;;;;;;61.70;39.07;;;;;;;;;;6622439;28;20197;-82
2022/10/27 05:39:41;;;;;;;61.00;35.70;;;;;;;;;;6622460;28;20554;-82
2022/10/27 05:42:53;;;;;;;54.30;34.87;;;;;;;;;;6621818;28;20209;-82
2022/10/27 05:46:03;;;;;;;50.43;34.33;;;;;;;;;;6621565;28;20246;-82
2022/10/27 05:49:14;;;;;;;53.60;35.13;;;;;;;;;;6621930;28;20172;-82
2022/10/27 05:52:24;;;;;;;55.10;34.90;;;;;;;;;;6621805;28;20167;-82
2022/10/27 05:55:34;;;;;;;60.73;33.30;;;;;;;;;;6622591;28;20164;-82
2022/10/27 05:58:44;;;;;;;56.13;34.57;;;;;;;;;;6622334;28;20220;-82
2022/10/27 06:01:55;;;;;;;47.90;32.03;;;;;;;;;;6621732;28;20175;-82
2022/10/27 06:05:05;;;;;;;53.33;33.20;;;;;;;;;;6603819;28;20629;-81
2022/10/27 06:08:16;;;;;;;56.70;29.37;;;;;;;;;;6622087;28;20594;-81
2022/10/27 06:11:26;;;;;;;52.40;30.73;;;;;;;;;;6622131;28;20183;-82
2022/10/27 06:14:37;;;;;;;45.53;29.17;;;;;;;;;;6621816;28;20218;-82
2022/10/27 06:17:50;;;;;;;93.63;54.90;;;;;;;;;;6622095;28;20175;-82
2022/10/27 06:21:01;;;;;;;121.20;59.80;;;;;;;;;;6621387;28;20263;-82
2022/10/27 06:24:11;;;;;;;80.00;50.20;;;;;;;;;;6621686;28;20168;-82
2022/10/27 06:27:21;;;;;;;70.37;45.83;;;;;;;;;;6621546;28;20196;-82
2022/10/27 06:30:32;;;;;;;59.50;40.70;;;;;;;;;;6603672;28;20176;-81
2022/10/27 06:33:42;;;;;;;46.13;36.17;;;;;;;;;;6624495;28;20164;-81
2022/10/27 06:36:52;;;;;;;43.00;30.60;;;;;;;;;;6626242;28;20171;-81
2022/10/27 06:40:03;;;;;;;36.73;27.23;;;;;;;;;;6626063;28;20178;-82
2022/10/27 06:43:14;;;;;;;32.13;26.00;;;;;;;;;;6626541;28;20168;-82
2022/10/27 06:46:24;;;;;;;32.63;25.97;;;;;;;;;;6625693;28;20231;-82
2022/10/27 06:49:34;;;;;;;32.60;27.73;;;;;;;;;;6626184;28;20528;-80
2022/10/27 06:52:44;;;;;;;30.70;25.80;;;;;;;;;;6625847;28;20269;-80
2022/10/27 06:55:55;;;;;;;28.53;25.47;;;;;;;;;;6625691;28;20179;-81
2022/10/27 06:59:05;;;;;;;26.57;23.77;;;;;;;;;;6626394;28;20220;-80
2022/10/27 07:02:15;;;;;;;25.00;22.27;;;;;;;;;;6625770;28;20605;-81
2022/10/27 07:05:26;;;;;;;28.08;22.13;;;;;;;;;;6625491;28;20175;-81
2022/10/27 07:08:36;;;;;;;26.15;20.88;;;;;;;;;;6607417;28;20211;-81
2022/10/27 07:11:46;;;;;;;24.77;20.92;;;;;;;;;;6625124;28;20178;-81
2022/10/27 07:14:57;;;;;;;27.58;24.27;;;;;;;;;;6624628;28;20178;-82
2022/10/27 07:18:07;;;;;;;30.08;24.42;;;;;;;;;;6624874;28;20179;-81
2022/10/27 07:21:18;;;;;;;32.60;27.10;;;;;;;;;;6625272;28;20627;-81
2022/10/27 07:24:28;;;;;;;27.77;24.70;;;;;;;;;;6624959;28;20171;-80
2022/10/27 07:27:38;;;;;;;29.30;23.65;;;;;;;;;;6624798;28;20245;-80
2022/10/27 07:30:52;;;;;;;33.50;26.03;;;;;;;;;;6625114;28;20167;-80
2022/10/27 07:34:02;;;;;;;34.33;28.98;;;;;;;;;;6624695;28;20599;-80
2022/10/27 07:37:13;;;;;;;28.58;23.98;;;;;;;;;;6624701;28;20175;-80
2022/10/27 07:40:23;;;;;;;30.80;25.65;;;;;;;;;;6606728;28;20712;-80
2022/10/27 07:43:35;;;;;;;23.58;20.83;;;;;;;;;;6624011;28;20178;-80
2022/10/27 07:46:46;;;;;;;20.63;17.58;;;;;;;;;;6624368;28;20195;-80
2022/10/27 07:49:56;;;;;;;21.25;18.50;;;;;;;;;;6625001;28;20190;-79
2022/10/27 07:53:06;;;;;;;17.38;14.65;;;;;;;;;;6623831;28;20796;-80
2022/10/27 07:56:17;;;;;;;16.08;14.38;;;;;;;;;;6624111;28;20234;-80
2022/10/27 07:59:27;;;;;;;17.58;15.35;;;;;;;;;;6607261;28;20167;-80
2022/10/27 08:02:38;;;;;;;17.58;15.00;;;;;;;;;;6623876;28;20194;-80
2022/10/27 08:05:48;;;;;;;14.50;13.00;;;;;;;;;;6623858;28;20176;-79
2022/10/27 08:08:58;;;;;;;13.23;11.82;;;;;;;;;;6624252;28;20203;-80
2022/10/27 08:12:09;;;;;;;13.32;11.95;;;;;;;;;;6624178;28;20172;-80
2022/10/27 08:15:19;;;;;;;12.93;11.57;;;;;;;;;;6605821;28;20171;-79
2022/10/27 08:18:29;;;;;;;12.75;11.45;;;;;;;;;;6605683;28;20180;-79
2022/10/27 08:21:40;;;;;;;12.07;10.93;;;;;;;;;;6623259;28;20167;-79
2022/10/27 08:24:50;;;;;;;13.35;11.43;;;;;;;;;;6605690;28;20186;-80
2022/10/27 08:28:00;;;;;;;11.85;10.60;;;;;;;;;;6622964;28;20199;-80
2022/10/27 08:31:11;;;;;;;13.48;10.13;;;;;;;;;;6623544;28;20267;-79
2022/10/27 08:34:21;;;;;;;9.70;8.70;;;;;;;;;;6623171;28;20168;-79
2022/10/27 08:37:31;;;;;;;10.88;9.77;;;;;;;;;;6623499;28;20233;-79
2022/10/27 08:40:46;;;;;;;9.80;8.82;;;;;;;;;;6622727;28;20168;-80
2022/10/27 08:44:03;;;;;;;9.32;8.38;;;;;;;;;;6622856;28;20516;-79
2022/10/27 08:47:20;;;;;;;9.27;7.80;;;;;;;;;;6622793;28;20200;-79
2022/10/27 08:50:37;;;;;;;10.07;8.13;;;;;;;;;;6622810;28;20596;-80
2022/10/27 08:53:49;;;;;;;8.20;7.10;;;;;;;;;;6606006;28;20657;-79
2022/10/27 08:57:01;;;;;;;8.02;7.30;;;;;;;;;;6621559;28;20246;-79
2022/10/27 09:00:12;;;;;;;7.20;6.32;;;;;;;;;;6622439;28;20171;-79
2022/10/27 09:03:35;;;;;;;8.13;7.32;;;;;;;;;;6623018;28;20191;-79
2022/10/27 09:06:54;;;;;;;8.45;7.57;;;;;;;;;;6621818;28;20192;-80
2022/10/27 09:10:11;;;;;;;10.02;8.00;;;;;;;;;;6622806;28;20199;-80
2022/10/27 09:13:21;;;;;;;10.00;7.07;;;;;;;;;;6622186;28;20167;-80
2022/10/27 09:16:34;;;;;;;8.45;6.50;;;;;;;;;;6604750;28;20179;-79
2022/10/27 09:19:52;;;;;;;8.68;7.57;;;;;;;;;;6604399;28;20616;-80
2022/10/27 09:23:04;;;;;;;7.68;6.97;;;;;;;;;;6622178;28;20214;-79
2022/10/27 09:26:16;;;;;;;6.50;5.90;;;;;;;;;;6621849;28;20199;-81
2022/10/27 09:29:28;;;;;;;6.32;5.70;;;;;;;;;;6603805;28;20176;-80
2022/10/27 09:32:40;;;;;;;6.85;6.22;;;;;;;;;;6620364;28;20183;-81
2022/10/27 09:35:50;;;;;;;6.05;5.45;;;;;;;;;;6619414;28;20172;-81
2022/10/27 09:39:01;;;;;;;6.70;5.72;;;;;;;;;;6619515;28;20520;-80
2022/10/27 09:42:11;;;;;;;11.30;6.97;;;;;;;;;;6619162;28;20170;-81
2022/10/27 09:45:23;;;;;;;17.35;8.55;;;;;;;;;;6618972;28;20644;-80
2022/10/27 09:48:33;;;;;;;9.90;6.95;;;;;;;;;;6619322;28;20199;-80
2022/10/27 09:52:02;;;;;;;7.57;6.88;;;;;;;;;;6620230;28;20164;-79
2022/10/27 09:55:12;;;;;;;9.40;6.35;;;;;;;;;;6621304;28;20182;-80
2022/10/27 09:58:22;;;;;;;7.38;6.43;;;;;;;;;;6620185;28;20228;-80
2022/10/27 10:01:39;;;;;;;13.80;7.90;;;;;;;;;;6619923;28;20176;-80
2022/10/27 10:04:52;;;;;;;9.95;7.43;;;;;;;;;;6621413;28;20598;-80
2022/10/27 10:08:24;;;;;;;10.48;7.53;;;;;;;;;;6623904;28;20203;-80
2022/10/27 10:11:34;;;;;;;8.00;7.18;;;;;;;;;;6627114;28;20172;-80
2022/10/27 10:14:45;;;;;;;7.82;7.03;;;;;;;;;;6608664;28;20182;-80
2022/10/27 10:17:59;;;;;;;8.52;6.82;;;;;;;;;;6626509;28;20203;-80
2022/10/27 10:21:11;;;;;;;8.00;6.70;;;;;;;;;;6608958;28;20176;-80
2022/10/27 10:24:23;;;;;;;9.55;7.10;;;;;;;;;;6627151;28;20186;-80
2022/10/27 10:27:34;;;;;;;8.33;5.67;;;;;;;;;;6608111;28;20207;-80
2022/10/27 10:30:47;;;;;;;5.82;5.22;;;;;;;;;;6624781;28;20528;-80
2022/10/27 10:34:02;;;;;;;7.13;5.00;;;;;;;;;;6623845;28;20186;-80
2022/10/27 10:37:29;;;;;;;6.90;5.25;;;;;;;;;;6623898;28;20176;-80
2022/10/27 10:40:40;;;;;;;6.13;5.40;;;;;;;;;;6624205;28;20179;-81
2022/10/27 10:44:12;;;;;;;6.80;4.78;;;;;;;;;;6623553;28;20172;-82
2022/10/27 10:47:27;;;;;;;6.95;4.05;;;;;;;;;;6623575;28;20360;-81
2022/10/27 10:50:49;;;;;;;5.22;4.20;;;;;;;;;;6625428;28;20199;-80
2022/10/27 10:54:07;;;;;;;4.90;4.10;;;;;;;;;;6625042;28;20226;-81
2022/10/27 10:57:26;;;;;;;6.05;4.72;;;;;;;;;;6625542;28;20231;-81
2022/10/27 11:00:37;;;;;;;4.65;4.10;;;;;;;;;;6625728;28;20168;-81
2022/10/27 11:03:49;;;;;;;4.25;3.95;;;;;;;;;;6626043;28;20286;-81
2022/10/27 11:07:02;;;;;;;5.15;4.40;;;;;;;;;;6625290;28;20203;-81
2022/10/27 11:10:27;;;;;;;5.05;3.83;;;;;;;;;;6625414;28;20172;-80
2022/10/27 11:13:39;;;;;;;6.70;5.25;;;;;;;;;;6607245;28;20262;-80
2022/10/27 11:16:55;;;;;;;5.63;4.97;;;;;;;;;;6624868;28;20184;-80
2022/10/27 11:20:12;;;;;;;5.22;3.95;;;;;;;;;;6624333;28;20232;-80
2022/10/27 11:23:26;;;;;;;4.50;3.65;;;;;;;;;;6625664;28;20161;-82
2022/10/27 11:27:00;;;;;;;4.32;3.92;;;;;;;;;;6625374;28;20231;-84
2022/10/27 11:30:19;;;;;;;4.10;3.60;;;;;;;;;;6613758;28;20190;-84
2022/10/27 11:33:35;;;;;;;5.20;4.25;;;;;;;;;;6625348;28;20202;-83
2022/10/27 11:36:50;;;;;;;6.13;4.70;;;;;;;;;;6624058;28;20157;-82
2022/10/27 11:40:03;;;;;;;6.07;4.50;;;;;;;;;;6624845;28;20172;-83
2022/10/27 11:43:29;;;;;;;5.43;4.68;;;;;;;;;;6624774;28;20259;-82
2022/10/27 11:46:43;;;;;;;5.70;4.90;;;;;;;;;;6606604;28;20675;-82
2022/10/27 11:49:58;;;;;;;5.28;4.45;;;;;;;;;;6625313;28;20179;-82
2022/10/27 11:53:08;;;;;;;6.32;3.80;;;;;;;;;;6624480;28;20176;-82
2022/10/27 11:56:26;;;;;;;6.45;5.10;;;;;;;;;;6624127;28;20281;-82
2022/10/27 11:59:55;;;;;;;6.20;4.38;;;;;;;;;;6624192;28;20179;-82
2022/10/27 12:03:18;;;;;;;4.22;3.83;;;;;;;;;;6623645;28;20184;-83
2022/10/27 12:06:31;;;;;;;5.82;4.38;;;;;;;;;;6623576;28;20219;-83
2022/10/27 12:10:11;;;;;;;5.20;4.70;;;;;;;;;;6622745;28;20178;-82
2022/10/27 12:13:25;;;;;;;5.47;4.32;;;;;;;;;;6549807;28;20306;-83
2022/10/27 12:16:49;;;;;;;5.22;4.60;;;;;;;;;;6621124;28;20187;-82
2022/10/27 12:20:00;;;;;;;5.30;4.80;;;;;;;;;;6621236;28;20172;-82
2022/10/27 12:23:13;;;;;;;5.88;5.07;;;;;;;;;;6621096;28;20160;-82
2022/10/27 12:26:32;;;;;;;4.75;4.35;;;;;;;;;;6621398;28;20211;-83
2022/10/27 12:29:45;;;;;;;5.10;4.47;;;;;;;;;;6620953;28;20183;-83
2022/10/27 12:33:01;;;;;;;5.00;4.60;;;;;;;;;;6622070;28;20171;-82
2022/10/27 12:36:18;;;;;;;5.85;4.95;;;;;;;;;;6623432;28;20222;-84
2022/10/27 12:39:32;;;;;;;6.40;5.50;;;;;;;;;;6623033;28;20251;-83
2022/10/27 12:42:54;;;;;;;4.82;4.35;;;;;;;;;;6622509;28;20190;-83
2022/10/27 12:46:18;;;;;;;4.63;4.22;;;;;;;;;;6620470;28;20589;-81
2022/10/27 12:49:40;;;;;;;5.55;4.90;;;;;;;;;;6620302;28;20282;-82
2022/10/27 12:52:55;;;;;;;5.15;4.72;;;;;;;;;;6620186;28;20167;-83
2022/10/27 12:56:27;;;;;;;6.72;5.15;;;;;;;;;;6620040;28;20172;-83
2022/10/27 12:59:52;;;;;;;6.07;5.47;;;;;;;;;;6620524;28;20152;-83
2022/10/27 13:03:18;;;;;;;6.25;4.75;;;;;;;;;;6620177;28;20195;-82
2022/10/27 13:06:51;;;;;;;8.93;5.18;;;;;;;;;;6621317;28;20211;-81
2022/10/27 13:10:04;;;;;;;5.35;4.85;;;;;;;;;;6622084;28;20160;-81
2022/10/27 13:13:17;;;;;;;6.55;4.82;;;;;;;;;;6622698;28;20252;-81
2022/10/27 13:16:46;;;;;;;5.13;4.72;;;;;;;;;;6622622;28;20198;-81
2022/10/27 13:20:01;;;;;;;6.53;5.07;;;;;;;;;;6622436;28;20168;-82
2022/10/27 13:23:21;;;;;;;5.90;5.30;;;;;;;;;;6622932;28;20171;-82
2022/10/27 13:26:35;;;;;;;5.55;4.85;;;;;;;;;;6621851;28;20206;-82
2022/10/27 13:29:49;;;;;;;6.65;4.82;;;;;;;;;;6605502;28;20632;-83
2022/10/27 13:32:59;;;;;;;5.40;4.78;;;;;;;;;;6622243;28;20168;-81
2022/10/27 13:36:17;;;;;;;10.45;5.50;;;;;;;;;;6621961;28;20174;-82
2022/10/27 13:39:27;;;;;;;7.55;5.70;;;;;;;;;;6623223;28;20175;-82
2022/10/27 13:42:37;;;;;;;6.95;6.03;;;;;;;;;;6626257;28;20218;-81
2022/10/27 13:45:49;;;;;;;6.90;5.80;;;;;;;;;;6610162;28;20184;-82
2022/10/27 13:48:59;;;;;;;6.25;5.65;;;;;;;;;;6626949;28;20200;-82
2022/10/27 13:52:15;;;;;;;6.78;5.63;;;;;;;;;;6626997;28;20617;-81
2022/10/27 13:55:30;;;;;;;7.03;5.40;;;;;;;;;;6626991;28;20176;-82
2022/10/27 13:58:46;;;;;;;8.85;6.63;;;;;;;;;;6628683;28;20571;-81
2022/10/27 14:02:03;;;;;;;7.20;6.35;;;;;;;;;;6626715;28;20242;-82
2022/10/27 14:05:20;;;;;;;7.32;6.45;;;;;;;;;;6626751;28;20191;-82
2022/10/27 14:08:32;;;;;;;11.05;6.70;;;;;;;;;;6627081;28;20195;-82
2022/10/27 14:11:45;;;;;;;9.32;6.65;;;;;;;;;;6627358;28;20530;-82
2022/10/27 14:15:00;;;;;;;9.50;6.63;;;;;;;;;;6627314;28;20183;-82
2022/10/27 14:18:30;;;;;;;16.20;11.57;;;;;;;;;;6627331;28;20164;-82
2022/10/27 14:21:44;;;;;;;16.95;13.48;;;;;;;;;;6627582;28;20500;-81
2022/10/27 14:25:13;;;;;;;17.23;13.65;;;;;;;;;;6627416;28;20180;-82
2022/10/27 14:28:24;;;;;;;16.70;11.90;;;;;;;;;;6626206;28;20669;-82
2022/10/27 14:31:36;;;;;;;26.95;18.38;;;;;;;;;;6626561;28;20509;-84
2022/10/27 14:34:46;;;;;;;32.45;20.98;;;;;;;;;;6626509;28;20168;-84
2022/10/27 14:37:57;;;;;;;32.17;21.33;;;;;;;;;;6626817;28;20180;-84
2022/10/27 14:41:12;;;;;;;23.43;15.87;;;;;;;;;;6627144;28;20174;-84
2022/10/27 14:44:30;;;;;;;18.67;13.20;;;;;;;;;;6626283;28;20575;-84
2022/10/27 14:47:42;;;;;;;15.77;11.80;;;;;;;;;;6625718;28;20195;-84
2022/10/27 14:50:53;;;;;;;15.07;11.07;;;;;;;;;;6625769;28;20258;-84
2022/10/27 14:54:04;;;;;;;16.13;10.97;;;;;;;;;;6625173;28;20179;-84
2022/10/27 14:57:50;;;;;;;17.17;11.20;;;;;;;;;;6625308;28;20235;-84
2022/10/27 15:01:00;;;;;;;14.93;10.90;;;;;;;;;;6527600;28;20695;-84
2022/10/27 15:04:21;;;;;;;13.00;11.03;;;;;;;;;;6626101;28;20184;-84
2022/10/27 15:07:33;;;;;;;13.93;10.73;;;;;;;;;;6625201;28;20203;-83
2022/10/27 15:10:45;;;;;;;12.27;10.10;;;;;;;;;;6625514;28;20176;-83
2022/10/27 15:13:57;;;;;;;12.70;9.67;;;;;;;;;;6625857;28;20168;-83
2022/10/27 15:17:11;;;;;;;13.70;11.43;;;;;;;;;;6625880;28;20171;-84
2022/10/27 15:20:22;;;;;;;15.27;11.50;;;;;;;;;;6625482;28;20175;-84
2022/10/27 15:23:32;;;;;;;17.43;11.47;;;;;;;;;;6625064;28;20164;-84
2022/10/27 15:26:43;;;;;;;16.33;12.20;;;;;;;;;;6624599;28;20241;-84
2022/10/27 15:29:54;;;;;;;13.40;11.50;;;;;;;;;;6624677;28;20628;-84
2022/10/27 15:33:23;;;;;;;12.87;11.20;;;;;;;;;;6624715;28;20171;-84
2022/10/27 15:36:33;;;;;;;15.77;12.00;;;;;;;;;;6607379;28;20636;-84
2022/10/27 15:39:44;;;;;;;18.27;13.53;;;;;;;;;;6624865;28;20189;-84
2022/10/27 15:42:54;;;;;;;19.00;14.40;;;;;;;;;;6624904;28;20218;-85
2022/10/27 15:46:23;;;;;;;21.13;15.83;;;;;;;;;;6624584;28;20300;-85
2022/10/27 15:49:35;;;;;;;19.77;15.83;;;;;;;;;;6624390;28;20253;-85
2022/10/27 15:52:46;;;;;;;26.50;18.43;;;;;;;;;;6607869;28;20639;-85
2022/10/27 15:56:00;;;;;;;23.33;17.50;;;;;;;;;;6624937;28;20160;-84
2022/10/27 15:59:22;;;;;;;28.57;21.07;;;;;;;;;;6624207;28;20192;-85
2022/10/27 16:02:33;;;;;;;25.13;19.33;;;;;;;;;;6623787;28;20187;-85
2022/10/27 16:05:44;;;;;;;29.40;21.70;;;;;;;;;;6623953;28;20633;-85
2022/10/27 16:08:56;;;;;;;30.17;22.07;;;;;;;;;;6624984;28;20269;-85
2022/10/27 16:12:13;;;;;;;29.43;21.93;;;;;;;;;;6623842;28;20199;-85
2022/10/27 16:15:24;;;;;;;36.60;23.83;;;;;;;;;;6606210;28;20685;-85
2022/10/27 16:18:34;;;;;;;34.77;25.47;;;;;;;;;;6624235;28;20167;-85
2022/10/27 16:21:45;;;;;;;35.53;23.93;;;;;;;;;;6623558;28;20172;-85
2022/10/27 16:24:55;;;;;;;35.83;26.63;;;;;;;;;;6624040;28;20164;-85
2022/10/27 16:28:12;;;;;;;40.50;29.10;;;;;;;;;;6623558;28;20191;-86
2022/10/27 16:31:22;;;;;;;46.80;33.77;;;;;;;;;;6623495;28;20176;-85
2022/10/27 16:34:33;;;;;;;49.03;35.67;;;;;;;;;;6623604;28;20172;-85
2022/10/27 16:37:43;;;;;;;48.77;32.20;;;;;;;;;;6623041;28;20168;-85
2022/10/27 16:40:53;;;;;;;49.87;33.80;;;;;;;;;;6623647;28;20617;-85
2022/10/27 16:44:04;;;;;;;45.60;32.07;;;;;;;;;;6623290;28;20486;-85
2022/10/27 16:47:16;;;;;;;49.33;35.60;;;;;;;;;;6623091;28;20226;-85
2022/10/27 16:50:26;;;;;;;55.87;36.00;;;;;;;;;;6623086;28;20494;-85
2022/10/27 16:53:37;;;;;;;56.10;36.97;;;;;;;;;;6623075;28;20257;-85
2022/10/27 16:56:47;;;;;;;54.40;37.40;;;;;;;;;;6623072;28;20408;-85
2022/10/27 16:59:57;;;;;;;61.93;39.27;;;;;;;;;;6623273;28;20225;-85
2022/10/27 17:03:07;;;;;;;63.77;40.90;;;;;;;;;;6622368;28;20723;-85
2022/10/27 17:06:20;;;;;;;66.23;45.40;;;;;;;;;;6623047;28;20183;-85
2022/10/27 17:09:30;;;;;;;70.40;44.97;;;;;;;;;;6622796;28;20176;-84
2022/10/27 17:12:41;;;;;;;65.93;44.83;;;;;;;;;;6623107;28;20214;-85
2022/10/27 17:15:51;;;;;;;67.93;47.07;;;;;;;;;;6621832;28;20164;-85
2022/10/27 17:19:01;;;;;;;70.03;46.50;;;;;;;;;;6622932;28;20640;-84
2022/10/27 17:22:12;;;;;;;70.67;48.70;;;;;;;;;;6622021;28;20207;-84
2022/10/27 17:25:22;;;;;;;74.17;51.10;;;;;;;;;;6622336;28;20217;-84
2022/10/27 17:28:33;;;;;;;75.70;52.00;;;;;;;;;;6621566;28;20210;-84
2022/10/27 17:31:43;;;;;;;76.37;52.33;;;;;;;;;;6622172;28;20172;-84
2022/10/27 17:34:54;;;;;;;75.60;51.97;;;;;;;;;;6621825;28;20527;-87
2022/10/27 17:38:04;;;;;;;77.87;53.97;;;;;;;;;;6621639;28;20167;-87
2022/10/27 17:41:14;;;;;;;75.53;52.73;;;;;;;;;;6622993;28;20209;-88
2022/10/27 17:44:24;;;;;;;74.50;51.67;;;;;;;;;;6604050;28;20179;-87
2022/10/27 17:47:35;;;;;;;82.70;53.47;;;;;;;;;;6621349;28;20731;-87
2022/10/27 17:50:45;;;;;;;75.13;52.40;;;;;;;;;;6623138;28;20234;-87
2022/10/27 17:53:56;;;;;;;79.37;52.47;;;;;;;;;;6604149;28;20187;-89
2022/10/27 17:57:08;;;;;;;78.53;53.10;;;;;;;;;;6621436;28;20232;-86
2022/10/27 18:00:19;;;;;;;98.07;62.23;;;;;;;;;;6621957;28;20568;-86
2022/10/27 18:03:29;;;;;;;92.97;60.27;;;;;;;;;;6603699;28;20278;-87
2022/10/27 18:06:40;;;;;;;78.70;53.47;;;;;;;;;;6621855;28;20191;-87
2022/10/27 18:09:51;;;;;;;91.33;57.50;;;;;;;;;;6621449;28;20208;-86
2022/10/27 18:13:01;;;;;;;87.63;59.60;;;;;;;;;;6622481;28;20278;-86
2022/10/27 18:16:30;;;;;;;107.07;69.23;;;;;;;;;;6622422;28;20263;-86
2022/10/27 18:19:41;;;;;;;117.30;74.27;;;;;;;;;;6622168;28;20159;-85
2022/10/27 18:22:51;;;;;;;113.23;73.20;;;;;;;;;;6622187;28;20678;-85
2022/10/27 18:26:02;;;;;;;101.23;64.50;;;;;;;;;;6604975;28;20648;-86
2022/10/27 18:29:13;;;;;;;103.10;64.37;;;;;;;;;;6624443;28;20567;-86
2022/10/27 18:32:24;;;;;;;92.67;61.07;;;;;;;;;;6627943;28;20178;-87
2022/10/27 18:35:37;;;;;;;89.70;58.07;;;;;;;;;;6627163;28;20164;-86
2022/10/27 18:38:51;;;;;;;81.47;55.47;;;;;;;;;;6626394;28;20186;-87
2022/10/27 18:42:01;;;;;;;88.23;58.07;;;;;;;;;;6608061;28;20617;-86
2022/10/27 18:45:11;;;;;;;77.83;53.47;;;;;;;;;;6625873;28;20175;-87
2022/10/27 18:48:22;;;;;;;82.17;54.07;;;;;;;;;;6626157;28;20192;-87
2022/10/27 18:51:35;;;;;;;77.07;51.47;;;;;;;;;;6626623;28;20168;-86
2022/10/27 18:54:45;;;;;;;76.77;50.20;;;;;;;;;;6625584;28;20262;-86